Dallas, Georgia
Current Conditions -  °F | °C
As of 9:35 PM on Wednesday 26 Nov 2014 (Local Time) from KPUJ Reporting Station
Overcast Overcast  
Wind Chill: 50°   Ceiling: 7000
Heat Index: 50°   Visibility: 10mi
Dew Point: 32°   Wind: 3mph
Humidity: 50%   Direction: 250°WSW
Pressure: 30.06"   Gusts: NA
Location:  33.92°N, 84.83°W
Report Text: KPUJ 270235Z AUTO 25003KT 10SM OVC070 10/00 A3006 RMK AO2
Loading
Personal Weather Stations






























Interactive Weather Map New forecast layout! Learn more

10-Day Weather Forecast

Advertisements
Track Severe Weather on mobile